Time;durP1;ratioP1;P1;durP2;ratioP2;P2;SDS_P1;SDS_P2;PMS_P1;PMS_P2;Temp;Humidity;BMP_temperature;BMP_pressure;BME280_temperature;BME280_humidity;BME280_pressure;Samples;Min_cycle;Max_cycle;Signal;HPM_P1;HPM_P2
2022/10/22 00:07:47;;;;;;;0.20;0.00;;;21.50;99.90;;;;;;26428933;22;20417;-77
2022/10/22 00:17:50;;;;;;;0.20;0.00;;;20.90;99.90;;;;;;26430037;22;20356;-78
2022/10/22 00:27:55;;;;;;;0.20;0.00;;;20.40;99.90;;;;;;26430823;22;20376;-78
2022/10/22 00:37:59;;;;;;;0.20;0.00;;;20.90;99.90;;;;;;26428068;22;20404;-79
2022/10/22 00:48:08;;;;;;;0.20;0.00;;;20.70;99.90;;;;;;26430348;22;20380;-80
2022/10/22 00:58:13;;;;;;;0.20;0.00;;;19.70;99.90;;;;;;26402470;22;20449;-80
2022/10/22 01:08:26;;;;;;;0.20;0.00;;;19.50;99.90;;;;;;26429624;22;20365;-80
2022/10/22 01:18:38;;;;;;;0.20;0.00;;;19.50;99.90;;;;;;26400275;22;20349;-79
2022/10/22 01:28:56;;;;;;;0.20;0.00;;;19.30;99.90;;;;;;26429147;22;20361;-81
2022/10/22 01:39:02;;;;;;;0.20;0.00;;;19.30;99.90;;;;;;26397372;22;20358;-81
2022/10/22 01:49:17;;;;;;;0.20;0.00;;;18.90;99.90;;;;;;26427273;22;20358;-81
2022/10/22 01:59:33;;;;;;;0.20;0.00;;;18.70;99.90;;;;;;26431938;22;20365;-85
2022/10/22 02:09:40;;;;;;;0.20;0.00;;;18.40;99.90;;;;;;26427541;22;20370;-79
2022/10/22 02:19:48;;;;;;;0.20;0.05;;;18.20;99.90;;;;;;26424433;22;20403;-79
2022/10/22 02:29:58;;;;;;;0.20;0.07;;;18.40;99.90;;;;;;26425148;22;20368;-78
2022/10/22 02:40:03;;;;;;;0.20;0.10;;;18.40;99.90;;;;;;26397141;22;20357;-78
2022/10/22 02:50:08;;;;;;;0.20;0.10;;;18.00;99.90;;;;;;26423628;22;20370;-80
2022/10/22 03:00:13;;;;;;;0.20;0.00;;;17.80;99.90;;;;;;26425802;22;20361;-77
2022/10/22 03:10:19;;;;;;;0.20;0.00;;;17.70;99.90;;;;;;26397708;22;20519;-82
2022/10/22 03:20:22;;;;;;;0.20;0.10;;;18.10;99.90;;;;;;26424987;22;20370;-78
2022/10/22 03:30:28;;;;;;;0.20;0.00;;;18.20;99.90;;;;;;26432625;22;20361;-80
2022/10/22 03:40:32;;;;;;;0.20;0.10;;;18.10;99.90;;;;;;26431039;22;20353;-80
2022/10/22 03:50:37;;;;;;;0.20;0.03;;;17.70;99.90;;;;;;26432276;22;20372;-80
2022/10/22 04:00:42;;;;;;;0.20;0.00;;;17.60;99.90;;;;;;26431129;22;20350;-80
2022/10/22 04:10:52;;;;;;;0.20;0.10;;;17.80;99.90;;;;;;26402239;22;20365;-84
2022/10/22 04:20:56;;;;;;;0.20;0.00;;;18.00;99.90;;;;;;26428893;22;20357;-84
2022/10/22 04:31:06;;;;;;;0.20;0.00;;;18.30;99.90;;;;;;26403975;22;20372;-81
2022/10/22 04:41:12;;;;;;;0.20;0.00;;;17.90;99.90;;;;;;26401027;22;20358;-81
2022/10/22 04:51:19;;;;;;;0.20;0.10;;;17.80;99.90;;;;;;26428501;22;20364;-82
2022/10/22 05:01:24;;;;;;;0.20;0.00;;;17.70;99.90;;;;;;26431879;22;20357;-79
2022/10/22 05:11:32;;;;;;;0.20;0.10;;;17.40;99.90;;;;;;26426543;22;20369;-80
2022/10/22 05:21:38;;;;;;;0.20;0.10;;;17.30;99.90;;;;;;26399987;22;20361;-79
2022/10/22 05:31:43;;;;;;;0.20;0.10;;;18.20;99.90;;;;;;26427598;22;20362;-80
2022/10/22 05:41:47;;;;;;;0.20;0.10;;;17.60;99.90;;;;;;26428923;22;20361;-79
2022/10/22 05:51:52;;;;;;;0.20;0.00;;;17.80;99.90;;;;;;26425636;22;20381;-79
2022/10/22 06:01:56;;;;;;;0.20;0.10;;;18.00;99.90;;;;;;26423881;22;20373;-80
2022/10/22 06:12:02;;;;;;;0.20;0.10;;;17.70;99.90;;;;;;26425283;22;20449;-82
2022/10/22 06:22:06;;;;;;;0.20;0.00;;;17.70;99.90;;;;;;26397258;22;20353;-81
2022/10/22 06:32:11;;;;;;;0.20;0.00;;;17.80;99.90;;;;;;26424585;22;20380;-84
2022/10/22 06:42:15;;;;;;;0.20;0.10;;;18.40;99.90;;;;;;26396538;22;20427;-81
2022/10/22 06:52:20;;;;;;;0.20;0.00;;;18.70;99.90;;;;;;26423328;22;20373;-79
2022/10/22 07:02:24;;;;;;;0.20;0.10;;;18.60;99.90;;;;;;26426032;22;20345;-82
2022/10/22 07:12:29;;;;;;;0.20;0.05;;;18.60;99.90;;;;;;26402623;22;20366;-82
2022/10/22 07:22:32;;;;;;;0.20;0.00;;;19.00;99.90;;;;;;26404576;22;20353;-82
2022/10/22 07:32:38;;;;;;;0.20;0.00;;;19.50;99.90;;;;;;26430479;22;20380;-85
2022/10/22 07:42:42;;;;;;;0.20;0.00;;;19.40;99.90;;;;;;26300327;22;20466;-83
2022/10/22 07:52:47;;;;;;;0.20;0.00;;;19.60;99.90;;;;;;26296747;22;20425;-81
2022/10/22 08:02:51;;;;;;;0.20;0.00;;;20.40;99.90;;;;;;26272722;22;20363;-83
2022/10/22 08:12:57;;;;;;;0.20;0.00;;;21.00;99.90;;;;;;26299252;22;20358;-84
2022/10/22 08:23:01;;;;;;;0.20;0.00;;;21.60;99.90;;;;;;26304010;22;20362;-83
2022/10/22 08:33:06;;;;;;;0.20;0.00;;;21.50;99.90;;;;;;26294850;22;20390;-85
2022/10/22 08:43:41;;;;;;;0.20;0.00;;;21.90;99.90;;;;;;26422324;22;20360;-83
2022/10/22 08:54:01;;;;;;;0.20;0.00;;;22.40;99.90;;;;;;26425889;22;20360;-83
2022/10/22 09:04:12;;;;;;;0.20;0.00;;;23.30;99.90;;;;;;26400456;22;20353;-82
2022/10/22 09:14:19;;;;;;;0.20;0.00;;;23.70;99.90;;;;;;26426508;22;20362;-80
2022/10/22 09:24:33;;;;;;;0.20;0.00;;;24.10;99.90;;;;;;26397754;22;20455;-79
2022/10/22 09:34:39;;;;;;;0.20;0.00;;;23.90;99.90;;;;;;26394805;22;20372;-82
2022/10/22 09:44:43;;;;;;;0.20;0.00;;;24.60;99.90;;;;;;26397894;22;20353;-81
2022/10/22 09:54:53;;;;;;;0.20;0.03;;;24.50;99.90;;;;;;26397654;22;20527;-81
2022/10/22 10:04:57;;;;;;;0.20;0.00;;;24.00;99.90;;;;;;26425965;22;20350;-86
2022/10/22 10:15:13;;;;;;;0.20;0.00;;;25.20;99.90;;;;;;26368155;22;20380;-85
2022/10/22 10:25:46;;;;;;;0.20;0.00;;;25.60;99.90;;;;;;26395746;22;20368;-82
2022/10/22 10:35:56;;;;;;;0.20;0.00;;;25.70;99.90;;;;;;26427507;22;20369;-82
2022/10/22 10:46:10;;;;;;;0.20;0.00;;;26.40;99.90;;;;;;26401031;22;20354;-84
2022/10/22 10:56:33;;;;;;;0.20;0.00;;;26.90;99.90;;;;;;26401956;22;20365;-78
2022/10/22 11:06:43;;;;;;;0.20;0.00;;;27.90;99.90;;;;;;26427351;22;20378;-77
2022/10/22 11:16:55;;;;;;;0.20;0.00;;;28.30;99.90;;;;;;26427947;22;20358;-80
2022/10/22 11:27:06;;;;;;;0.20;0.00;;;28.80;99.90;;;;;;26396140;22;21592;-77
2022/10/22 11:37:13;;;;;;;0.20;0.00;;;28.50;99.90;;;;;;26428381;22;20361;-78
2022/10/22 11:47:20;;;;;;;0.20;0.00;;;28.50;99.90;;;;;;26427117;22;20373;-79
2022/10/22 11:57:35;;;;;;;0.20;0.00;;;29.00;99.90;;;;;;26428426;22;20358;-80
2022/10/22 12:07:53;;;;;;;0.20;0.00;;;28.10;99.90;;;;;;26397964;22;20365;-81
2022/10/22 12:18:00;;;;;;;0.20;0.00;;;28.10;99.90;;;;;;26426726;22;20698;-77
2022/10/22 12:28:05;;;;;;;0.20;0.00;;;27.70;99.90;;;;;;26427310;22;20372;-79
2022/10/22 12:38:15;;;;;;;0.20;0.00;;;27.60;99.90;;;;;;26424670;22;20357;-79
2022/10/22 12:48:22;;;;;;;0.20;0.00;;;27.50;99.90;;;;;;26398670;22;20377;-80
2022/10/22 12:58:31;;;;;;;0.20;0.00;;;27.50;99.90;;;;;;26395914;22;20356;-80
2022/10/22 13:08:35;;;;;;;0.20;0.00;;;27.80;99.90;;;;;;26397595;22;20365;-78
2022/10/22 13:18:40;;;;;;;0.20;0.00;;;28.50;99.90;;;;;;26396844;22;20927;-77
2022/10/22 13:28:51;;;;;;;0.20;0.00;;;29.20;99.90;;;;;;26394164;22;20368;-78
2022/10/22 13:38:56;;;;;;;0.20;0.00;;;29.80;99.90;;;;;;26426086;22;20369;-75
2022/10/22 13:49:00;;;;;;;0.20;0.00;;;30.30;99.90;;;;;;26396831;22;20353;-76
2022/10/22 13:59:05;;;;;;;0.20;0.00;;;29.40;99.90;;;;;;26397882;22;20341;-75
2022/10/22 14:09:14;;;;;;;0.20;0.00;;;28.20;99.90;;;;;;26423613;22;20475;-83
2022/10/22 14:19:20;;;;;;;0.20;0.00;;;29.90;99.90;;;;;;26427330;22;20353;-82
2022/10/22 14:29:24;;;;;;;0.20;0.00;;;30.80;99.90;;;;;;26426003;22;20369;-84
2022/10/22 14:39:29;;;;;;;0.20;0.10;;;31.00;99.90;;;;;;26424434;22;20369;-85
2022/10/22 14:49:33;;;;;;;0.20;0.00;;;31.00;99.90;;;;;;26423890;22;20361;-81
2022/10/22 14:59:39;;;;;;;0.20;0.10;;;29.20;99.90;;;;;;26394299;22;20369;-77
2022/10/22 15:09:43;;;;;;;0.20;0.00;;;28.20;99.90;;;;;;26395919;22;20365;-80
2022/10/22 15:19:48;;;;;;;0.20;0.00;;;27.20;99.90;;;;;;26423298;22;20366;-82
2022/10/22 15:29:52;;;;;;;0.20;0.00;;;26.60;99.90;;;;;;26431044;22;20357;-82
2022/10/22 15:39:59;;;;;;;0.20;0.00;;;25.80;99.90;;;;;;26342557;22;20405;-71
2022/10/22 15:50:03;;;;;;;0.20;0.00;;;25.00;99.90;;;;;;26266147;22;20378;-71
2022/10/22 16:00:09;;;;;;;0.20;0.00;;;24.60;99.90;;;;;;26289856;22;20463;-69
2022/10/22 16:10:13;;;;;;;0.20;0.00;;;24.50;99.90;;;;;;26267728;22;20367;-71
2022/10/22 16:20:18;;;;;;;0.20;0.00;;;24.40;99.90;;;;;;26265526;22;20355;-71
2022/10/22 16:30:22;;;;;;;0.20;0.03;;;24.20;99.90;;;;;;26295048;22;20382;-71
2022/10/22 16:40:28;;;;;;;0.20;0.00;;;24.00;99.90;;;;;;26293895;22;20359;-70
2022/10/22 16:50:31;;;;;;;0.20;0.00;;;23.80;99.90;;;;;;26266917;22;20371;-71
2022/10/22 17:00:37;;;;;;;0.20;0.00;;;23.30;99.90;;;;;;26264996;22;20377;-73
2022/10/22 17:10:41;;;;;;;0.20;0.05;;;23.30;99.90;;;;;;26287707;22;20378;-71
2022/10/22 17:20:46;;;;;;;0.20;0.00;;;23.00;99.90;;;;;;26293781;22;20366;-72
2022/10/22 17:30:50;;;;;;;0.20;0.00;;;22.90;99.90;;;;;;26291566;22;20371;-72
2022/10/22 17:40:57;;;;;;;0.20;0.00;;;22.30;99.90;;;;;;26264070;22;20355;-72
2022/10/22 17:51:07;;;;;;;0.20;0.00;;;22.00;99.90;;;;;;26292829;22;20366;-72
2022/10/22 18:01:20;;;;;;;0.20;0.00;;;21.70;99.90;;;;;;26287018;22;20464;-73
2022/10/22 18:11:30;;;;;;;0.20;0.00;;;21.40;99.90;;;;;;26287445;22;20370;-72
2022/10/22 18:21:35;;;;;;;0.20;0.00;;;21.10;99.90;;;;;;26264366;22;20724;-72
2022/10/22 18:31:39;;;;;;;0.20;0.00;;;20.70;99.90;;;;;;26288957;22;20412;-71
2022/10/22 18:41:45;;;;;;;0.20;0.00;;;20.70;99.90;;;;;;26289571;22;20355;-72
2022/10/22 18:51:51;;;;;;;0.20;0.00;;;20.50;99.90;;;;;;26261295;22;20367;-72
2022/10/22 19:01:58;;;;;;;0.20;0.00;;;20.30;99.90;;;;;;26260638;22;20351;-72
2022/10/22 19:12:02;;;;;;;0.20;0.00;;;20.20;99.90;;;;;;26290481;22;20534;-71
2022/10/22 19:22:07;;;;;;;0.20;0.00;;;20.10;99.90;;;;;;26293149;22;20431;-72
2022/10/22 19:32:11;;;;;;;0.20;0.03;;;20.00;99.90;;;;;;26293833;22;20367;-72
2022/10/22 19:42:17;;;;;;;0.20;0.00;;;20.10;99.90;;;;;;26263739;22;20388;-72
2022/10/22 19:52:21;;;;;;;0.20;0.10;;;20.00;99.90;;;;;;26265286;22;20378;-72
2022/10/22 20:02:26;;;;;;;0.20;0.00;;;19.80;99.90;;;;;;26264619;22;20359;-69
2022/10/22 20:12:30;;;;;;;0.20;0.00;;;19.70;99.90;;;;;;26266098;22;21360;-69
2022/10/22 20:22:35;;;;;;;0.20;0.05;;;19.60;99.90;;;;;;26295287;22;20386;-68
2022/10/22 20:32:39;;;;;;;0.20;0.00;;;19.40;99.90;;;;;;26268934;22;20382;-69
2022/10/22 20:42:46;;;;;;;0.20;0.10;;;19.30;99.90;;;;;;26268021;22;20366;-69
2022/10/22 20:52:50;;;;;;;0.20;0.10;;;19.30;99.90;;;;;;26256914;22;20382;-69
2022/10/22 21:02:55;;;;;;;0.20;0.00;;;19.40;99.90;;;;;;26289900;22;20367;-68
2022/10/22 21:12:59;;;;;;;0.20;0.00;;;19.00;99.90;;;;;;26290668;22;20367;-68
2022/10/22 21:23:04;;;;;;;0.20;0.00;;;19.10;99.90;;;;;;26289017;22;20362;-69
2022/10/22 21:33:08;;;;;;;0.20;0.00;;;19.00;99.90;;;;;;26290677;22;20368;-70
2022/10/22 21:43:13;;;;;;;0.20;0.00;;;19.10;99.90;;;;;;26291021;22;20366;-69
2022/10/22 21:53:17;;;;;;;0.20;0.00;;;18.90;99.90;;;;;;26261225;22;20359;-70
2022/10/22 22:03:23;;;;;;;0.20;0.00;;;19.00;99.90;;;;;;26290788;22;20405;-69
2022/10/22 22:13:27;;;;;;;0.20;0.00;;;19.00;99.90;;;;;;26259840;22;20371;-71
2022/10/22 22:23:32;;;;;;;0.20;0.00;;;18.90;99.90;;;;;;26291754;22;20363;-70
2022/10/22 22:33:36;;;;;;;0.20;0.03;;;19.00;99.90;;;;;;26289384;22;20374;-70
2022/10/22 22:43:41;;;;;;;0.20;0.00;;;18.90;99.90;;;;;;26261383;22;20355;-70
2022/10/22 22:53:46;;;;;;;0.20;0.00;;;18.90;99.90;;;;;;26289638;22;20355;-70
2022/10/22 23:03:54;;;;;;;0.20;0.00;;;18.80;99.90;;;;;;26266939;22;20354;-69
2022/10/22 23:14:00;;;;;;;0.20;0.03;;;18.70;99.90;;;;;;26266625;22;20411;-69
2022/10/22 23:24:08;;;;;;;0.20;0.00;;;18.90;99.90;;;;;;26292649;22;20374;-70
2022/10/22 23:34:14;;;;;;;0.20;0.10;;;18.90;99.90;;;;;;26293420;22;20382;-69
2022/10/22 23:44:20;;;;;;;0.20;0.00;;;19.10;99.90;;;;;;26293798;22;20363;-69
2022/10/22 23:54:24;;;;;;;0.20;0.00;;;19.10;99.90;;;;;;26298863;22;20369;-69
